createdAt,value
2019-02-21T06:55:44.955Z,740.00
2019-02-21T06:56:44.932Z,768.00
2019-02-21T06:57:44.939Z,820.00
2019-02-21T06:58:44.944Z,860.00
2019-02-21T06:59:45.403Z,908.00
2019-02-21T07:00:46.222Z,964.00
2019-02-21T07:01:44.952Z,1028.00
2019-02-21T07:02:44.956Z,1120.00
2019-02-21T07:03:44.963Z,1204.00
2019-02-21T07:04:44.966Z,1264.00
2019-02-21T07:05:44.975Z,1292.00
2019-02-21T07:06:44.973Z,1336.00
2019-02-21T07:07:44.987Z,1400.00
2019-02-21T07:08:44.979Z,1484.00
2019-02-21T07:09:44.987Z,1572.00
2019-02-21T07:10:44.987Z,1636.00
2019-02-21T07:11:46.083Z,1600.00
2019-02-21T07:12:44.996Z,1716.00
2019-02-21T07:13:44.996Z,1792.00
2019-02-21T07:14:45.005Z,1820.00
2019-02-21T07:15:45.028Z,1872.00
2019-02-21T07:16:45.008Z,1968.00
2019-02-21T07:17:49.186Z,2156.00
2019-02-21T07:18:45.018Z,2360.00
2019-02-21T07:19:45.019Z,2604.00
2019-02-21T07:20:45.022Z,2616.00
2019-02-21T07:21:45.028Z,2520.00
2019-02-21T07:22:45.034Z,2292.00
2019-02-21T07:23:45.027Z,2248.00
2019-02-21T07:24:45.032Z,2344.00
2019-02-21T07:25:45.044Z,2488.00
2019-02-21T07:26:45.051Z,2724.00
2019-02-21T07:27:45.114Z,2864.00
2019-02-21T07:28:45.056Z,2940.00
2019-02-21T07:29:45.055Z,3080.00
2019-02-21T07:30:45.062Z,3232.00
2019-02-21T07:31:45.065Z,3580.00
2019-02-21T07:32:45.077Z,3620.00
2019-02-21T07:33:45.078Z,3672.00
2019-02-21T07:34:45.078Z,3768.00
2019-02-21T07:35:45.083Z,4000.00
2019-02-21T07:36:45.090Z,4028.00
2019-02-21T07:37:45.099Z,3992.00
2019-02-21T07:38:45.089Z,4084.00
2019-02-21T07:39:45.101Z,4320.00
2019-02-21T07:40:45.102Z,4516.00
2019-02-21T07:41:45.105Z,4644.00
2019-02-21T07:42:45.125Z,4760.00
2019-02-21T07:43:45.136Z,4864.00
2019-02-21T07:44:45.463Z,4940.00
2019-02-21T07:45:45.136Z,4788.00
2019-02-21T07:46:46.314Z,4752.00
2019-02-21T07:47:45.136Z,4968.00
2019-02-21T07:48:45.139Z,5108.00
2019-02-21T07:49:45.149Z,5072.00
2019-02-21T07:50:45.159Z,5092.00
2019-02-21T07:51:45.154Z,5156.00
2019-02-21T07:52:45.168Z,5320.00
2019-02-21T07:53:45.165Z,5756.00
2019-02-21T07:54:45.164Z,6140.00
2019-02-21T07:55:45.195Z,6428.00
2019-02-21T07:56:45.181Z,6696.00
2019-02-21T07:57:45.196Z,7132.00
2019-02-21T07:58:45.208Z,6260.00
2019-02-21T07:59:45.195Z,6736.00
2019-02-21T08:00:45.203Z,5756.00
2019-02-21T08:01:45.219Z,5960.00
2019-02-21T08:02:45.213Z,7540.00
2019-02-21T08:03:48.313Z,7680.00
2019-02-21T08:04:45.226Z,10488.00
2019-02-21T08:05:45.232Z,22944.00
2019-02-21T08:06:45.233Z,20352.00
2019-02-21T08:07:45.247Z,20448.00
2019-02-21T08:08:45.246Z,14688.00
2019-02-21T08:09:45.256Z,18112.00
2019-02-21T08:10:45.269Z,11044.00
2019-02-21T08:11:45.280Z,7640.00
2019-02-21T08:12:45.283Z,7392.00
2019-02-21T08:13:45.287Z,7224.00
2019-02-21T08:14:45.312Z,6800.00
2019-02-21T08:15:45.342Z,4780.00
2019-02-21T08:16:45.316Z,5232.00
2019-02-21T08:17:45.318Z,4184.00
2019-02-21T08:18:45.321Z,4112.00
2019-02-21T08:19:45.332Z,4820.00
2019-02-21T08:20:45.339Z,4768.00
2019-02-21T08:21:45.438Z,3852.00
2019-02-21T08:22:45.359Z,3632.00
2019-02-21T08:23:50.456Z,3704.00
2019-02-21T08:24:45.362Z,3292.00
2019-02-21T08:25:45.368Z,3032.00
2019-02-21T08:26:45.376Z,3020.00
2019-02-21T08:27:45.398Z,3108.00
2019-02-21T08:28:45.382Z,3264.00
2019-02-21T08:29:45.385Z,3400.00
2019-02-21T08:30:45.402Z,3528.00
2019-02-21T08:31:45.411Z,3692.00
2019-02-21T08:32:45.413Z,3908.00
2019-02-21T08:33:55.448Z,4004.00
2019-02-21T08:34:48.057Z,4184.00
2019-02-21T08:35:45.434Z,4220.00
2019-02-21T08:36:45.435Z,4440.00
2019-02-21T08:37:45.435Z,4312.00
2019-02-21T08:38:45.446Z,4308.00
2019-02-21T08:39:45.454Z,4284.00
2019-02-21T08:40:45.459Z,3784.00
2019-02-21T08:41:45.464Z,3440.00
2019-02-21T08:42:45.482Z,3288.00
2019-02-21T08:43:45.483Z,3232.00
2019-02-21T08:44:45.481Z,3164.00
2019-02-21T08:45:45.494Z,3080.00
2019-02-21T08:46:45.508Z,3028.00
2019-02-21T08:47:45.496Z,3000.00
2019-02-21T08:48:47.726Z,3032.00
2019-02-21T08:49:45.512Z,3068.00
2019-02-21T08:50:45.518Z,3012.00
2019-02-21T08:51:45.530Z,2876.00
2019-02-21T08:52:45.535Z,2972.00
2019-02-21T08:53:45.530Z,2912.00
2019-02-21T08:54:45.540Z,2932.00
2019-02-21T08:55:45.545Z,2868.00
2019-02-21T08:56:45.554Z,2844.00
2019-02-21T08:57:45.569Z,2908.00
2019-02-21T08:58:45.598Z,3036.00
2019-02-21T08:59:45.577Z,3092.00
2019-02-21T09:00:45.580Z,3324.00
2019-02-21T09:01:45.582Z,3580.00
2019-02-21T09:02:45.600Z,3864.00
2019-02-21T09:03:45.591Z,4100.00
2019-02-21T09:04:45.607Z,4236.00
2019-02-21T09:05:45.603Z,4340.00
2019-02-21T09:06:45.612Z,4224.00
2019-02-21T09:07:46.569Z,4112.00
2019-02-21T09:08:45.625Z,3952.00
2019-02-21T09:09:45.628Z,3912.00
2019-02-21T09:10:45.629Z,3736.00
2019-02-21T09:11:45.649Z,3632.00
2019-02-21T09:12:48.465Z,3512.00
2019-02-21T09:13:45.648Z,3484.00
2019-02-21T09:14:45.663Z,3276.00
2019-02-21T09:15:46.579Z,3020.00
2019-02-21T09:16:45.672Z,2752.00
2019-02-21T09:17:45.673Z,2512.00
2019-02-21T09:18:45.686Z,2324.00
2019-02-21T09:19:45.691Z,2184.00
2019-02-21T09:20:47.722Z,2200.00
2019-02-21T09:21:45.702Z,1996.00
2019-02-21T09:22:45.721Z,1848.00
2019-02-21T09:23:45.711Z,1748.00
2019-02-21T09:24:45.712Z,1656.00
2019-02-21T09:25:45.716Z,1604.00
2019-02-21T09:26:45.738Z,1516.00
2019-02-21T09:27:45.740Z,1536.00
2019-02-21T09:28:45.740Z,1564.00
2019-02-21T09:29:45.749Z,1744.00
2019-02-21T09:30:45.785Z,2032.00
2019-02-21T09:31:45.768Z,2432.00
2019-02-21T09:32:45.774Z,3088.00
2019-02-21T09:33:45.767Z,3764.00
2019-02-21T09:34:45.778Z,4376.00
2019-02-21T09:35:45.782Z,4536.00
2019-02-21T09:36:45.788Z,4524.00
2019-02-21T09:37:45.810Z,4720.00
2019-02-21T09:38:45.839Z,5068.00
2019-02-21T09:39:45.808Z,5028.00
2019-02-21T09:40:45.829Z,4640.00
2019-02-21T09:41:45.828Z,4128.00
2019-02-21T09:42:45.819Z,3704.00
2019-02-21T09:43:45.838Z,3492.00
2019-02-21T09:44:45.837Z,3408.00
2019-02-21T09:45:45.837Z,3320.00
2019-02-21T09:46:45.853Z,3120.00
2019-02-21T09:47:45.855Z,2960.00
2019-02-21T09:48:45.859Z,2872.00
2019-02-21T09:49:45.861Z,2920.00
2019-02-21T09:50:45.882Z,3248.00
2019-02-21T09:51:45.871Z,3736.00
2019-02-21T09:52:45.885Z,4452.00
2019-02-21T09:53:45.889Z,5216.00
2019-02-21T09:54:47.522Z,5676.00
2019-02-21T09:55:45.894Z,5572.00
2019-02-21T09:56:52.927Z,5752.00
2019-02-21T09:57:45.919Z,6428.00
2019-02-21T09:58:46.093Z,7392.00
2019-02-21T09:59:45.932Z,8112.00
2019-02-21T10:00:45.932Z,9032.00
2019-02-21T10:01:45.940Z,9840.00
2019-02-21T10:02:45.952Z,11028.00
2019-02-21T10:03:45.957Z,13452.00
2019-02-21T10:04:45.959Z,12980.00
2019-02-21T10:05:45.976Z,12924.00
2019-02-21T10:06:45.974Z,10616.00
2019-02-21T10:07:45.979Z,8744.00
2019-02-21T10:08:45.989Z,6860.00
2019-02-21T10:09:46.014Z,5856.00
2019-02-21T10:10:46.001Z,5320.00
2019-02-21T10:12:46.017Z,4528.00
2019-02-21T10:13:46.033Z,4616.00
2019-02-21T10:14:46.033Z,4864.00
2019-02-21T10:15:47.131Z,5100.00
2019-02-21T10:16:46.131Z,5064.00
2019-02-21T10:17:46.061Z,5408.00
2019-02-21T10:18:46.069Z,6028.00
2019-02-21T10:19:46.071Z,7008.00
2019-02-21T10:20:46.073Z,8008.00
2019-02-21T10:21:46.088Z,8984.00
2019-02-21T10:22:46.095Z,10580.00
2019-02-21T10:23:46.101Z,10752.00
2019-02-21T10:24:46.115Z,10900.00
2019-02-21T10:25:46.111Z,13256.00
2019-02-21T10:26:46.118Z,11320.00
2019-02-21T10:27:46.129Z,11220.00
2019-02-21T10:28:46.137Z,11792.00
2019-02-21T10:29:46.140Z,12848.00
2019-02-21T10:30:46.156Z,12496.00
2019-02-21T10:31:46.162Z,10180.00
2019-02-21T10:32:46.182Z,8868.00
2019-02-21T10:33:47.294Z,9164.00
2019-02-21T10:34:46.190Z,9192.00
2019-02-21T10:35:46.193Z,9192.00
2019-02-21T10:36:46.203Z,8888.00
2019-02-21T10:37:46.203Z,8760.00
2019-02-21T10:38:46.218Z,8320.00
2019-02-21T10:39:47.900Z,7628.00
2019-02-21T10:40:46.234Z,7156.00
2019-02-21T10:41:46.241Z,7044.00
2019-02-21T10:42:46.255Z,6976.00
2019-02-21T10:43:46.259Z,7116.00
2019-02-21T10:44:46.265Z,6540.00
2019-02-21T10:45:48.158Z,6000.00
2019-02-21T10:46:46.312Z,5652.00
2019-02-21T10:47:46.297Z,5160.00
2019-02-21T10:48:46.306Z,5008.00
2019-02-21T10:49:46.307Z,4996.00
2019-02-21T10:50:46.320Z,5268.00
2019-02-21T10:51:46.318Z,5544.00
2019-02-21T10:52:46.331Z,6008.00
2019-02-21T10:53:46.340Z,6356.00
2019-02-21T10:54:46.347Z,6796.00
2019-02-21T10:55:48.073Z,7284.00
2019-02-21T10:56:46.356Z,7936.00
2019-02-21T10:57:46.365Z,8772.00
2019-02-21T10:58:46.391Z,9728.00
2019-02-21T10:59:47.127Z,10616.00
2019-02-21T11:00:46.395Z,11516.00
2019-02-21T11:01:46.401Z,11640.00
2019-02-21T11:02:46.400Z,13608.00
2019-02-21T11:03:46.424Z,14564.00
2019-02-21T11:04:54.457Z,12304.00
2019-02-21T11:05:46.430Z,12848.00
2019-02-21T11:06:46.443Z,11884.00
2019-02-21T11:07:46.444Z,10836.00
2019-02-21T11:08:46.460Z,11064.00
2019-02-21T11:09:46.467Z,11472.00
2019-02-21T11:10:46.487Z,11296.00
2019-02-21T11:11:46.483Z,11408.00
2019-02-21T11:12:46.494Z,11616.00
2019-02-21T11:13:46.503Z,10728.00
2019-02-21T11:14:47.731Z,9392.00
2019-02-21T11:15:46.528Z,8672.00
2019-02-21T11:16:46.530Z,7904.00
2019-02-21T11:17:46.558Z,7472.00
2019-02-21T11:18:46.541Z,7192.00
2019-02-21T11:19:46.556Z,7056.00
2019-02-21T11:20:46.584Z,7004.00
2019-02-21T11:21:46.567Z,7228.00
2019-02-21T11:22:46.583Z,7656.00
2019-02-21T11:23:46.586Z,8104.00
2019-02-21T11:24:46.600Z,8420.00
2019-02-21T11:25:46.604Z,8656.00
2019-02-21T11:26:46.619Z,8248.00
2019-02-21T11:27:46.618Z,7832.00
2019-02-21T11:28:47.388Z,7212.00
2019-02-21T11:29:46.641Z,6508.00
2019-02-21T11:30:46.644Z,5884.00
2019-02-21T11:31:46.656Z,5356.00
2019-02-21T11:32:46.663Z,4684.00
2019-02-21T11:33:46.669Z,4124.00
2019-02-21T11:34:46.679Z,3696.00
2019-02-21T11:35:46.697Z,3260.00
2019-02-21T11:36:46.705Z,2948.00
2019-02-21T11:37:47.505Z,2828.00
2019-02-21T11:38:46.708Z,2604.00
2019-02-21T11:39:46.725Z,2564.00
2019-02-21T11:40:46.734Z,2608.00
2019-02-21T11:41:46.782Z,2692.00
2019-02-21T11:42:46.746Z,2844.00
2019-02-21T11:43:46.755Z,3060.00
2019-02-21T11:44:46.768Z,3432.00
2019-02-21T11:45:53.937Z,3620.00
2019-02-21T11:46:46.777Z,3800.00
2019-02-21T11:47:46.788Z,4124.00
2019-02-21T11:48:46.819Z,4532.00
2019-02-21T11:49:46.801Z,4988.00
2019-02-21T11:50:46.806Z,5752.00
2019-02-21T11:51:46.819Z,6632.00
2019-02-21T11:52:46.823Z,7852.00
2019-02-21T11:53:46.828Z,10064.00
2019-02-21T11:54:46.836Z,19072.00
2019-02-21T11:55:46.853Z,23424.00
2019-02-21T11:56:46.865Z,30080.00
2019-02-21T11:57:46.860Z,47904.00
2019-02-21T11:58:46.865Z,32128.00
2019-02-21T11:59:46.881Z,70368.00
2019-02-21T12:00:46.890Z,65472.00
2019-02-21T12:01:46.894Z,43232.00
2019-02-21T12:02:46.909Z,35136.00
2019-02-21T12:03:46.935Z,44320.00
2019-02-21T12:04:46.935Z,62944.00
2019-02-21T12:05:46.948Z,27360.00
2019-02-21T12:06:47.753Z,14492.00
2019-02-21T12:07:46.967Z,13672.00
2019-02-21T12:08:46.982Z,14020.00
2019-02-21T12:09:46.987Z,15776.00
2019-02-21T12:10:47.002Z,15612.00
2019-02-21T12:11:47.032Z,16960.00
2019-02-21T12:12:47.034Z,16592.00
2019-02-21T12:13:47.038Z,18464.00
2019-02-21T12:14:47.050Z,13372.00
2019-02-21T12:15:47.062Z,12688.00
2019-02-21T12:16:47.083Z,11624.00
2019-02-21T12:17:47.080Z,12260.00
2019-02-21T12:18:47.099Z,14016.00
2019-02-21T12:19:47.106Z,16004.00
2019-02-21T12:20:47.123Z,24512.00
2019-02-21T12:21:58.432Z,13864.00
2019-02-21T12:22:47.138Z,12732.00
2019-02-21T12:23:47.150Z,11260.00
2019-02-21T12:24:47.157Z,10548.00
2019-02-21T12:25:47.165Z,9160.00
2019-02-21T12:26:47.174Z,8348.00
2019-02-21T12:27:47.190Z,7768.00
2019-02-21T12:28:47.217Z,7260.00
2019-02-21T12:29:47.213Z,6852.00
2019-02-21T12:30:47.227Z,6768.00
2019-02-21T12:31:47.240Z,6888.00
2019-02-21T12:32:47.250Z,7016.00
2019-02-21T12:33:47.260Z,7044.00
2019-02-21T12:34:47.253Z,7116.00
2019-02-21T12:35:47.269Z,7136.00
2019-02-21T12:36:47.283Z,7160.00
2019-02-21T12:37:47.292Z,7188.00
2019-02-21T12:38:47.302Z,7208.00
2019-02-21T12:39:47.307Z,7092.00
2019-02-21T12:40:47.322Z,7248.00
2019-02-21T12:41:47.336Z,7544.00
2019-02-21T12:42:47.338Z,7060.00
2019-02-21T12:43:47.352Z,7224.00
2019-02-21T12:44:47.954Z,7328.00
2019-02-21T12:45:47.367Z,7640.00
2019-02-21T12:46:47.373Z,7452.00
2019-02-21T12:47:52.946Z,6916.00
2019-02-21T12:48:47.395Z,6232.00
2019-02-21T12:49:47.414Z,6208.00
2019-02-21T12:50:47.411Z,5720.00
2019-02-21T12:51:47.425Z,5732.00
2019-02-21T12:52:47.431Z,5632.00
2019-02-21T12:53:47.444Z,5884.00
2019-02-21T12:54:47.459Z,5456.00
2019-02-21T12:55:47.458Z,5528.00
2019-02-21T12:56:47.467Z,5516.00
2019-02-21T12:57:47.478Z,5760.00
2019-02-21T12:58:47.493Z,6224.00
2019-02-21T12:59:47.492Z,6504.00
2019-02-21T13:00:47.516Z,7104.00
2019-02-21T13:01:47.512Z,7428.00
2019-02-21T13:02:47.522Z,7360.00
2019-02-21T13:03:47.533Z,8036.00
2019-02-21T13:04:47.547Z,7876.00
2019-02-21T13:05:47.548Z,8124.00
2019-02-21T13:06:47.566Z,8328.00
2019-02-21T13:07:47.566Z,8216.00
2019-02-21T13:08:47.577Z,8232.00
2019-02-21T13:09:47.592Z,8496.00
2019-02-21T13:10:47.598Z,8416.00
2019-02-21T13:11:47.607Z,7788.00
2019-02-21T13:12:47.611Z,7044.00
2019-02-21T13:13:47.622Z,6468.00
2019-02-21T13:14:47.636Z,5912.00
2019-02-21T13:15:47.651Z,5660.00
2019-02-21T13:16:47.651Z,5760.00
2019-02-21T13:17:47.669Z,5660.00
2019-02-21T13:18:47.673Z,5672.00
2019-02-21T13:19:47.677Z,5952.00
2019-02-21T13:20:47.693Z,6380.00
2019-02-21T13:21:47.696Z,6784.00
2019-02-21T13:22:47.705Z,7288.00
2019-02-21T13:23:47.719Z,6804.00
2019-02-21T13:24:47.728Z,6404.00
2019-02-21T13:25:47.733Z,5936.00
2019-02-21T13:26:47.743Z,4992.00
2019-02-21T13:27:47.749Z,4604.00
2019-02-21T13:28:47.761Z,4624.00
2019-02-21T13:29:47.764Z,4632.00
2019-02-21T13:30:47.784Z,4700.00
2019-02-21T13:31:47.795Z,4580.00
2019-02-21T13:32:47.800Z,4284.00
2019-02-21T13:33:47.818Z,3976.00
2019-02-21T13:34:47.818Z,3676.00
2019-02-21T13:35:52.801Z,3444.00
2019-02-21T13:36:47.844Z,3360.00
2019-02-21T13:37:47.841Z,3288.00
2019-02-21T13:38:47.850Z,3360.00
2019-02-21T13:39:47.851Z,3524.00
2019-02-21T13:40:49.627Z,3812.00
2019-02-21T13:41:47.877Z,3752.00
2019-02-21T13:42:47.881Z,3772.00
2019-02-21T13:43:47.895Z,3608.00
2019-02-21T13:44:47.896Z,3488.00
2019-02-21T13:45:47.909Z,3344.00
2019-02-21T13:46:47.918Z,3232.00
2019-02-21T13:47:47.924Z,3328.00
2019-02-21T13:48:47.933Z,3172.00
2019-02-21T13:49:47.945Z,3080.00
2019-02-21T13:50:47.946Z,2940.00
2019-02-21T13:51:47.966Z,2856.00
2019-02-21T13:52:47.956Z,2844.00
2019-02-21T13:53:47.993Z,2820.00
2019-02-21T13:54:47.997Z,2820.00
2019-02-21T13:55:50.842Z,2888.00
2019-02-21T13:56:48.000Z,2896.00
2019-02-21T13:57:48.009Z,2904.00
2019-02-21T13:58:48.011Z,3084.00
2019-02-21T13:59:48.022Z,3072.00
2019-02-21T14:00:48.031Z,3104.00
2019-02-21T14:01:48.041Z,3152.00
2019-02-21T14:02:48.050Z,3332.00
2019-02-21T14:03:48.055Z,3448.00
2019-02-21T14:04:48.063Z,3584.00
2019-02-21T14:05:48.076Z,3564.00
2019-02-21T14:06:48.092Z,3628.00
2019-02-21T14:07:48.099Z,3744.00
2019-02-21T14:08:48.096Z,3852.00
2019-02-21T14:09:48.111Z,3840.00
2019-02-21T14:10:48.127Z,3976.00
2019-02-21T14:11:48.139Z,3596.00
2019-02-21T14:12:48.154Z,3360.00
2019-02-21T14:13:48.125Z,3116.00
2019-02-21T14:14:48.147Z,2860.00
2019-02-21T14:15:48.147Z,2616.00
2019-02-21T14:16:48.164Z,2408.00
2019-02-21T14:17:48.170Z,2288.00
2019-02-21T14:18:48.181Z,2264.00
2019-02-21T14:19:48.189Z,2316.00
2019-02-21T14:20:48.286Z,2368.00
2019-02-21T14:21:48.266Z,2480.00
2019-02-21T14:22:48.202Z,2596.00
2019-02-21T14:23:48.223Z,2656.00
2019-02-21T14:24:48.228Z,2760.00
2019-02-21T14:25:48.238Z,2896.00
2019-02-21T14:26:48.250Z,2820.00
2019-02-21T14:27:48.249Z,2896.00
2019-02-21T14:28:48.262Z,2928.00
2019-02-21T14:29:48.263Z,2964.00
2019-02-21T14:30:48.287Z,2964.00
2019-02-21T14:31:48.292Z,2980.00
2019-02-21T14:32:48.290Z,3000.00
2019-02-21T14:33:48.302Z,3016.00
2019-02-21T14:34:48.322Z,3028.00
2019-02-21T14:35:48.313Z,3056.00
2019-02-21T14:36:48.316Z,3064.00
2019-02-21T14:37:48.343Z,3056.00
2019-02-21T14:38:48.355Z,2956.00
2019-02-21T14:39:48.348Z,2904.00
2019-02-21T14:40:48.356Z,2856.00
2019-02-21T14:41:48.369Z,2764.00
2019-02-21T14:42:48.369Z,2720.00
2019-02-21T14:43:48.384Z,2712.00
2019-02-21T14:44:49.550Z,2728.00
2019-02-21T14:45:48.391Z,2744.00
2019-02-21T14:46:50.280Z,2832.00
2019-02-21T14:47:48.410Z,3076.00
2019-02-21T14:48:48.428Z,3404.00
2019-02-21T14:49:48.423Z,3756.00
2019-02-21T14:50:48.437Z,3880.00
2019-02-21T14:51:48.441Z,3928.00
2019-02-21T14:52:48.515Z,3948.00
2019-02-21T14:53:48.459Z,3844.00
2019-02-21T14:54:48.470Z,3760.00
2019-02-21T14:55:48.475Z,3800.00
2019-02-21T14:56:48.490Z,3884.00
2019-02-21T14:57:48.487Z,3724.00
2019-02-21T14:58:48.496Z,3860.00
2019-02-21T14:59:48.519Z,3496.00
2019-02-21T15:00:48.528Z,3124.00
2019-02-21T15:01:48.516Z,2660.00
2019-02-21T15:02:48.544Z,2236.00
2019-02-21T15:03:48.539Z,1992.00
2019-02-21T15:04:48.546Z,1816.00
2019-02-21T15:05:48.565Z,1720.00
2019-02-21T15:06:48.567Z,1768.00
2019-02-21T15:07:48.579Z,1864.00
2019-02-21T15:08:48.589Z,1984.00
2019-02-21T15:09:48.585Z,2064.00
2019-02-21T15:10:48.595Z,2232.00
2019-02-21T15:11:48.600Z,2400.00
2019-02-21T15:12:48.616Z,2540.00
2019-02-21T15:13:48.618Z,2684.00
2019-02-21T15:14:48.636Z,2748.00
2019-02-21T15:15:48.624Z,2728.00
2019-02-21T15:16:48.648Z,2612.00
2019-02-21T15:17:48.652Z,2588.00
2019-02-21T15:18:48.661Z,2492.00
2019-02-21T15:19:48.672Z,2328.00
2019-02-21T15:20:48.686Z,2156.00
2019-02-21T15:21:48.695Z,2028.00
2019-02-21T15:22:48.694Z,1996.00
2019-02-21T15:23:48.709Z,1936.00
2019-02-21T15:24:48.714Z,1768.00
2019-02-21T15:25:48.729Z,1616.00
2019-02-21T15:26:48.728Z,1476.00
2019-02-21T15:27:48.721Z,1384.00
2019-02-21T15:28:48.738Z,1300.00
2019-02-21T15:29:48.742Z,1272.00
2019-02-21T15:30:48.754Z,1276.00
2019-02-21T15:31:48.761Z,1324.00
2019-02-21T15:32:48.768Z,1432.00
2019-02-21T15:33:48.777Z,1324.00
2019-02-21T15:34:48.785Z,1240.00
2019-02-21T15:35:48.805Z,1112.00
2019-02-21T15:36:48.803Z,1008.00
2019-02-21T15:37:48.807Z,936.00
2019-02-21T15:38:48.926Z,856.00
2019-02-21T15:39:48.830Z,776.00
2019-02-21T15:40:48.841Z,712.00
2019-02-21T15:41:48.840Z,684.00
2019-02-21T15:42:48.850Z,676.00
2019-02-21T15:43:48.853Z,684.00
2019-02-21T15:44:48.889Z,728.00
2019-02-21T15:45:48.866Z,768.00
2019-02-21T15:46:48.891Z,796.00
2019-02-21T15:47:48.889Z,808.00
2019-02-21T15:48:48.977Z,784.00
2019-02-21T15:49:48.905Z,772.00
2019-02-21T15:50:48.914Z,788.00
2019-02-21T15:51:48.914Z,812.00
2019-02-21T15:52:48.926Z,848.00
2019-02-21T15:53:48.934Z,844.00
2019-02-21T15:54:48.947Z,800.00
2019-02-21T15:55:48.954Z,736.00
2019-02-21T15:56:48.962Z,688.00
2019-02-21T15:57:48.961Z,652.00
2019-02-21T15:58:48.969Z,612.00
2019-02-21T15:59:48.981Z,544.00
2019-02-21T16:00:48.976Z,476.00
2019-02-21T16:01:48.992Z,436.00
2019-02-21T16:02:48.996Z,392.00
2019-02-21T16:03:49.021Z,368.00
2019-02-21T16:04:49.013Z,348.00
2019-02-21T16:05:49.020Z,324.00
2019-02-21T16:06:51.843Z,308.00
2019-02-21T16:07:49.047Z,308.00
2019-02-21T16:08:49.045Z,316.00
2019-02-21T16:09:49.065Z,332.00
2019-02-21T16:10:49.057Z,336.00
2019-02-21T16:11:49.073Z,324.00
2019-02-21T16:12:49.639Z,304.00
2019-02-21T16:13:51.285Z,304.00
2019-02-21T16:14:49.083Z,300.00
2019-02-21T16:15:49.098Z,312.00
2019-02-21T16:16:49.106Z,312.00
2019-02-21T16:17:49.109Z,296.00
2019-02-21T16:18:49.117Z,276.00
2019-02-21T16:19:49.145Z,260.00
2019-02-21T16:20:49.123Z,256.00
2019-02-21T16:21:49.151Z,280.00
2019-02-21T16:22:49.144Z,284.00
2019-02-21T16:23:49.157Z,256.00
2019-02-21T16:24:49.152Z,236.00
2019-02-21T16:25:49.164Z,216.00
2019-02-21T16:26:49.158Z,184.00
2019-02-21T16:27:49.165Z,172.00
2019-02-21T16:28:49.184Z,172.00
2019-02-21T16:29:49.189Z,176.00
2019-02-21T16:30:49.196Z,180.00
2019-02-21T16:31:49.209Z,188.00
2019-02-21T16:32:49.211Z,200.00
2019-02-21T16:33:49.224Z,196.00
2019-02-21T16:34:49.221Z,196.00
2019-02-21T16:35:49.233Z,200.00
2019-02-21T16:36:49.242Z,184.00
2019-02-21T16:37:49.248Z,164.00
2019-02-21T16:38:49.250Z,144.00
2019-02-21T16:39:49.267Z,124.00
2019-02-21T16:40:49.344Z,112.00
2019-02-21T16:41:49.283Z,108.00
2019-02-21T16:42:49.277Z,96.00
2019-02-21T16:43:49.291Z,92.00
2019-02-21T16:44:49.300Z,88.00
2019-02-21T16:45:53.759Z,88.00
2019-02-21T16:46:49.312Z,80.00
2019-02-21T16:47:49.320Z,72.00
2019-02-21T16:48:49.334Z,68.00
2019-02-21T16:49:49.334Z,64.00
2019-02-21T16:50:49.331Z,60.00
2019-02-21T16:51:49.343Z,56.00
2019-02-21T16:52:49.357Z,52.00
2019-02-21T16:53:49.354Z,48.00
2019-02-21T16:54:49.370Z,40.00
2019-02-21T16:55:49.374Z,36.00
2019-02-21T16:56:49.376Z,32.00
2019-02-21T16:57:49.390Z,28.00
2019-02-21T16:58:49.397Z,28.00
2019-02-21T16:59:49.401Z,24.00
2019-02-21T17:00:54.704Z,24.00
2019-02-21T17:01:49.410Z,16.00
2019-02-21T17:02:49.419Z,20.00
2019-02-21T17:03:49.425Z,20.00
2019-02-21T17:04:49.442Z,16.00
2019-02-21T17:05:49.442Z,16.00
2019-02-21T17:06:49.521Z,8.00
2019-02-21T17:07:49.451Z,12.00
2019-02-21T17:08:49.459Z,8.00
2019-02-21T17:09:49.461Z,4.00
2019-02-21T17:10:49.468Z,8.00
2019-02-21T17:11:49.477Z,4.00
2019-02-21T17:13:49.492Z,8.00
2019-02-21T17:14:49.498Z,4.00
2019-02-21T17:15:49.509Z,4.00
2019-02-21T17:16:49.515Z,4.00
2019-02-21T17:17:49.579Z,4.00
2019-02-21T17:18:49.526Z,4.00
2019-02-21T17:19:49.531Z,4.00
2019-02-21T17:20:49.538Z,4.00
2019-02-21T17:21:49.540Z,0.00
2019-02-21T17:22:49.558Z,4.00
2019-02-21T17:23:49.575Z,0.00
2019-02-21T17:24:49.578Z,4.00
2019-02-21T17:25:49.577Z,0.00
2019-02-21T17:26:49.580Z,4.00
2019-02-21T17:27:49.592Z,0.00
2019-02-21T17:28:49.591Z,4.00
2019-02-21T17:29:49.591Z,0.00
2019-02-21T17:30:49.613Z,4.00
2019-02-21T17:31:49.648Z,0.00
2019-02-21T17:32:49.613Z,4.00
2019-02-21T17:33:49.629Z,0.00
2019-02-21T17:34:49.633Z,0.00
2019-02-21T17:35:49.650Z,0.00
2019-02-21T17:36:49.642Z,0.00
2019-02-21T17:37:49.661Z,4.00
2019-02-21T17:38:49.665Z,0.00
2019-02-21T17:39:49.665Z,4.00
2019-02-21T17:40:49.674Z,4.00
2019-02-21T17:41:49.682Z,4.00
2019-02-21T17:42:49.689Z,0.00
2019-02-21T17:43:49.706Z,0.00
2019-02-21T17:44:49.702Z,4.00
2019-02-21T17:45:49.716Z,0.00
2019-02-21T17:46:49.719Z,4.00
2019-02-21T17:47:49.725Z,0.00
2019-02-21T17:48:49.737Z,0.00
2019-02-21T17:49:49.734Z,4.00
2019-02-21T17:50:49.745Z,4.00
2019-02-21T17:51:49.747Z,0.00
2019-02-21T17:52:49.753Z,0.00
2019-02-21T17:53:49.750Z,0.00
2019-02-21T17:54:49.770Z,4.00
2019-02-21T17:55:49.779Z,0.00
2019-02-21T17:56:49.799Z,0.00
2019-02-21T17:57:49.788Z,0.00
2019-02-21T17:58:49.798Z,4.00
2019-02-21T17:59:49.808Z,4.00
2019-02-21T18:00:49.805Z,4.00
2019-02-21T18:01:49.814Z,0.00
2019-02-21T18:02:49.822Z,0.00
2019-02-21T18:03:49.837Z,0.00
2019-02-21T18:04:49.841Z,0.00
2019-02-21T18:05:49.852Z,4.00
2019-02-21T18:06:49.840Z,0.00
2019-02-21T18:07:49.850Z,0.00
2019-02-21T18:08:49.857Z,0.00
2019-02-21T18:09:49.863Z,4.00
2019-02-21T18:10:49.874Z,0.00
2019-02-21T18:11:49.892Z,4.00
2019-02-21T18:12:50.045Z,0.00
2019-02-21T18:13:49.901Z,0.00
2019-02-21T18:14:49.904Z,0.00
2019-02-21T18:15:49.899Z,4.00
2019-02-21T18:16:49.909Z,4.00
2019-02-21T18:17:49.917Z,0.00
2019-02-21T18:18:49.925Z,0.00
2019-02-21T18:19:49.931Z,4.00
2019-02-21T18:20:49.940Z,4.00
2019-02-21T18:21:49.953Z,0.00
2019-02-21T18:22:49.950Z,4.00
2019-02-21T18:23:49.954Z,4.00
2019-02-21T18:24:49.962Z,0.00
2019-02-21T18:25:49.967Z,0.00
2019-02-21T18:26:49.962Z,0.00
2019-02-21T18:27:49.978Z,0.00
2019-02-21T18:28:49.998Z,0.00
2019-02-21T18:29:50.005Z,0.00
2019-02-21T18:30:50.063Z,0.00
2019-02-21T18:31:50.849Z,0.00
2019-02-21T18:32:50.011Z,0.00
2019-02-21T18:33:50.037Z,0.00
2019-02-21T18:34:50.029Z,0.00
2019-02-21T18:35:50.038Z,4.00
2019-02-21T18:36:50.039Z,0.00
2019-02-21T18:37:50.045Z,4.00
2019-02-21T18:38:50.052Z,4.00
2019-02-21T18:39:50.062Z,0.00
2019-02-21T18:40:50.068Z,4.00
2019-02-21T18:41:50.067Z,4.00
2019-02-21T18:42:50.075Z,0.00
2019-02-21T18:43:50.076Z,0.00
2019-02-21T18:44:50.092Z,0.00
2019-02-21T18:45:50.096Z,0.00
2019-02-21T18:46:50.100Z,0.00
2019-02-21T18:47:50.106Z,4.00
2019-02-21T18:48:50.116Z,4.00
2019-02-21T18:49:50.157Z,0.00
2019-02-21T18:50:50.129Z,4.00
2019-02-21T18:51:50.226Z,0.00
2019-02-21T18:52:50.144Z,0.00
2019-02-21T18:53:50.139Z,4.00
2019-02-21T18:54:50.172Z,4.00
2019-02-21T18:55:50.170Z,4.00
2019-02-21T18:56:50.165Z,0.00
2019-02-21T18:57:50.174Z,0.00
2019-02-21T18:58:50.236Z,4.00
2019-02-21T18:59:50.187Z,0.00
2019-02-21T19:00:50.188Z,0.00
2019-02-21T19:01:50.197Z,0.00
2019-02-21T19:02:50.204Z,0.00
2019-02-21T19:03:50.211Z,0.00
2019-02-21T19:04:50.216Z,4.00
2019-02-21T19:05:50.221Z,0.00
2019-02-21T19:06:50.225Z,0.00
2019-02-21T19:07:58.313Z,0.00
2019-02-21T19:08:50.253Z,0.00
2019-02-21T19:09:50.251Z,4.00
2019-02-21T19:10:50.255Z,0.00
2019-02-21T19:11:50.260Z,0.00
2019-02-21T19:12:50.256Z,0.00
2019-02-21T19:13:50.274Z,0.00
2019-02-21T19:14:50.276Z,0.00
2019-02-21T19:15:50.286Z,0.00
2019-02-21T19:16:50.295Z,0.00